Ayer, MA (01432)

8:16 AM EDT on July 25, 2016 (GMT -0400)
Ayer Center | | Change Station

Elev 230 ft 42.56 °N, 71.59 °W | Updated 18 seconds ago

Partly Cloudy
Partly Cloudy
70.7 °F
Feels Like 77 °F
N
0.0
Wind Variable Wind from WSW
Gusts 0.0 mph

Today
High -- | Low -- °F
--% Chance of Precip.
Yesterday
High -- | Low -- °F
Precip. -- in
Pressure 29.96 in
Visibility 10.0 miles
Clouds Few 100 ft
Heat Index 77 °F
Dew Point 41 °F
Humidity 34%
Rainfall 0.00 in
Snow Depth Not available.
5:31 AM 8:13 PM
Waning Gibbous, 66% visible
METAR KFIT 251152Z AUTO 00000KT 10SM FEW001 22/12 A2996 RMK AO2 SLP144 T02170122 10217 20161 50001
Pressure 29.96 in
Visibility 10.0 miles
Clouds Few 100 ft
Heat Index 77 °F
Dew Point 41 °F
Humidity 34%
Rainfall 0.00 in
Snow Depth Not available.
5:31 AM 8:13 PM
Waning Gibbous, 66% visible
METAR KFIT 251152Z AUTO 00000KT 10SM FEW001 22/12 A2996 RMK AO2 SLP144 T02170122 10217 20161 50001

10-Day Weather Forecast

Almanac

Astronomy

Jul. 25, 2016 Rise Set
Actual Time
Civil Twilight
Nautical Twilight
Astronomical Twilight
Moon
Length of Visible Light
Length of Day
Tomorrow will be .
, % of the Moon is Illuminated

Today's Extremes

State Highs State Lows

Community

WunderPhotos

Upload Photos

1,927,294 photos uploaded!

WunderBlog® & News

Nearby

Air Quality

  Air Quality AQ Index Pollutant
Not available.

Snow Depth

Station Depth Elevation

Earthquake Activity

City Distance Mag. Time & Date
Minimum magnitude displayed is 2.5.

Coastal Water Temperatures

Place Temperature

Stations

Nearby Weather Stations

Station Location Temp. Windchill Dew Point Humidity Wind Precip. Elev Updated Type
                   

Watches & Warnings

There are currently no watches in effect.